Pays
Station

 

Conditions  météo  pour  Lakeview Automatic Weather Observing/Reporting System  -  Etats-Unis    Etats-Unis

  
-1 °C
    
 
 

METAR pour Lakeview Automatic Weather Observing/Reporting System :

KLKV 200553Z AUTO 33006KT 10SM CLR M01/M04 A3013 RMK AO2 SLP236 T10111044 10056 21017 57011 FZRANO

 

Voici le bulletin pour Lakeview Automatic Weather Observing/Reporting System - Etats-Unis.
 
Le bulletin a été fait il y a une heure et 21 minutes, à 05:53 UTC .
Le vent soufflait à la vitesse de 3.1 mètres par seconde de Nord/Nord-ouest (330°).
 
La température était de -1 °C, avec un point de rosée à -4 °C.
La température ressentie était de -5 °C.
 
La pression atmosphérique était de 1020 hPa.
L'humidité relative était de 80.0%.
 
Le ciel était clair.
 
La visibilité globale était de 16.1 kilomètres.
 

 
 
 

Pays :   A   B   C   D   E   F   G   H   I   J   K   L   M   N   O   P   Q   R   S   T   U   V   W   Y   Z

 

Partenaires :  Info Météo avec Met'info
Météo Marine avec MeteoMarine.net
Infos Site  |  Infos Légales  |  Crédits  |  Confidentialité
Contactez-nous  |  Ajouter aux favoris
© 2013-2020 METAR - Tous droits réservés